Time;durP1;ratioP1;P1;durP2;ratioP2;P2;SDS_P1;SDS_P2;PMS_P1;PMS_P2;Temp;Humidity;BMP_temperature;BMP_pressure;BME280_temperature;BME280_humidity;BME280_pressure;Samples;Min_cycle;Max_cycle;Signal;HPM_P1;HPM_P2
2020/12/23 00:00:11;;;;;;;0.50;0.40;;;14.80;98.70;;;;;;4971439;28;20946;-76
2020/12/23 00:02:37;;;;;;;2.20;0.50;;;14.70;98.80;;;;;;4971844;28;20396;-76
2020/12/23 00:05:09;;;;;;;0.50;0.50;;;14.60;98.90;;;;;;4971539;28;20398;-75
2020/12/23 00:07:36;;;;;;;0.50;0.40;;;14.80;99.30;;;;;;4972094;28;20388;-75
2020/12/23 00:10:03;;;;;;;0.60;0.30;;;15.10;99.90;;;;;;4971606;28;20399;-76
2020/12/23 00:12:29;;;;;;;0.70;0.40;;;15.40;99.90;;;;;;4972181;28;20419;-76
2020/12/23 00:14:55;;;;;;;0.63;0.30;;;14.90;99.90;;;;;;4971900;28;20404;-76
2020/12/23 00:17:20;;;;;;;0.60;0.40;;;15.10;98.80;;;;;;4972348;28;20876;-76
2020/12/23 00:19:49;;;;;;;0.90;0.40;;;14.90;98.60;;;;;;4972123;28;20403;-76
2020/12/23 00:22:15;;;;;;;0.80;0.40;;;15.10;99.90;;;;;;4971734;28;20392;-75
2020/12/23 00:24:42;;;;;;;0.40;0.32;;;15.20;98.90;;;;;;4972122;28;20388;-75
2020/12/23 00:27:07;;;;;;;0.43;0.33;;;15.00;98.00;;;;;;4971313;28;20420;-76
2020/12/23 00:29:33;;;;;;;0.50;0.30;;;15.20;98.10;;;;;;4972157;28;20420;-76
2020/12/23 00:31:59;;;;;;;0.60;0.40;;;15.20;99.90;;;;;;4956727;28;20456;-76
2020/12/23 00:34:24;;;;;;;0.60;0.40;;;15.00;97.70;;;;;;4953246;28;20954;-75
2020/12/23 00:36:58;;;;;;;0.60;0.40;;;15.10;97.40;;;;;;4952224;28;20961;-77
2020/12/23 00:39:24;;;;;;;1.40;0.50;;;15.30;97.10;;;;;;4952304;28;20485;-75
2020/12/23 00:41:50;;;;;;;0.50;0.40;;;15.20;98.40;;;;;;4952259;28;20477;-76
2020/12/23 00:44:16;;;;;;;0.60;0.50;;;15.20;99.90;;;;;;4954118;28;20394;-75
2020/12/23 00:46:42;;;;;;;0.60;0.40;;;15.00;97.40;;;;;;4955758;28;20448;-75
2020/12/23 00:49:08;;;;;;;0.50;0.40;;;15.30;98.30;;;;;;4954040;28;20847;-75
2020/12/23 00:51:34;;;;;;;1.90;0.70;;;14.90;98.20;;;;;;4955829;28;20477;-75
2020/12/23 00:54:00;;;;;;;1.13;0.60;;;15.00;99.90;;;;;;4955210;28;20863;-76
2020/12/23 00:56:26;;;;;;;0.80;0.60;;;14.90;98.90;;;;;;4955721;28;20489;-76
2020/12/23 00:58:52;;;;;;;0.70;0.70;;;14.60;99.20;;;;;;4955138;28;20401;-77
2020/12/23 01:01:17;;;;;;;0.70;0.50;;;14.50;99.90;;;;;;4955467;28;20468;-76
2020/12/23 01:03:44;;;;;;;0.80;0.80;;;14.50;99.40;;;;;;4955804;28;20441;-76
2020/12/23 01:06:10;;;;;;;0.85;0.70;;;14.40;99.80;;;;;;4955112;28;20413;-76
2020/12/23 01:08:36;;;;;;;1.00;0.60;;;14.40;99.90;;;;;;4955589;28;20747;-76
2020/12/23 01:11:05;;;;;;;0.70;0.60;;;14.10;99.90;;;;;;4954956;28;20386;-76
2020/12/23 01:13:31;;;;;;;0.82;0.60;;;14.10;99.90;;;;;;4955385;28;20914;-76
2020/12/23 01:15:57;;;;;;;0.57;0.57;;;14.00;99.90;;;;;;4954942;28;20395;-77
2020/12/23 01:18:23;;;;;;;1.10;0.50;;;14.00;99.90;;;;;;4955338;28;20386;-76
2020/12/23 01:20:49;;;;;;;0.60;0.50;;;14.30;99.90;;;;;;4955451;28;20885;-76
2020/12/23 01:23:14;;;;;;;0.60;0.40;;;14.00;99.90;;;;;;4969571;28;20410;-77
2020/12/23 01:25:40;;;;;;;0.60;0.47;;;14.20;99.90;;;;;;4955328;28;20453;-76
2020/12/23 01:28:06;;;;;;;1.20;0.60;;;14.00;99.90;;;;;;4954932;29;20425;-76
2020/12/23 01:30:31;;;;;;;0.53;0.40;;;14.40;99.90;;;;;;4955417;28;20382;-76
2020/12/23 01:32:57;;;;;;;0.80;0.50;;;14.40;99.90;;;;;;4954662;28;20773;-76
2020/12/23 01:35:22;;;;;;;0.70;0.70;;;14.40;99.90;;;;;;4955292;28;20396;-76
2020/12/23 01:37:48;;;;;;;0.80;0.50;;;14.20;99.90;;;;;;4954859;28;20414;-76
2020/12/23 01:40:14;;;;;;;0.60;0.50;;;14.50;99.90;;;;;;4954163;28;21009;-76
2020/12/23 01:42:39;;;;;;;0.70;0.60;;;14.40;99.90;;;;;;4955039;28;20433;-77
2020/12/23 01:45:05;;;;;;;0.80;0.60;;;14.10;99.90;;;;;;4954644;28;20390;-76
2020/12/23 01:47:32;;;;;;;0.77;0.47;;;13.80;99.90;;;;;;4955078;28;20397;-76
2020/12/23 01:49:58;;;;;;;2.60;0.90;;;14.00;99.90;;;;;;4954308;28;20461;-76
2020/12/23 01:52:25;;;;;;;0.60;0.50;;;14.00;99.90;;;;;;4954597;28;20437;-76
2020/12/23 01:54:53;;;;;;;0.90;0.60;;;14.10;99.90;;;;;;4954491;28;20468;-76
2020/12/23 01:57:18;;;;;;;0.60;0.50;;;13.90;99.90;;;;;;4953882;28;20390;-76
2020/12/23 01:59:48;;;;;;;0.70;0.52;;;13.90;99.90;;;;;;4954605;28;20401;-76
2020/12/23 02:02:37;;;;;;;0.90;0.40;;;13.90;99.90;;;;;;4953700;28;20461;-76
2020/12/23 02:05:08;;;;;;;0.50;0.40;;;14.30;99.90;;;;;;4953955;28;20481;-77
2020/12/23 02:07:35;;;;;;;0.40;0.30;;;14.70;99.90;;;;;;4954390;28;20425;-76
2020/12/23 02:10:05;;;;;;;0.50;0.30;;;14.50;99.90;;;;;;4953867;28;20536;-77
2020/12/23 02:12:31;;;;;;;0.70;0.40;;;15.00;99.90;;;;;;4954668;28;20513;-76
2020/12/23 02:15:10;;;;;;;0.50;0.30;;;15.00;98.50;;;;;;4953949;28;20541;-78
2020/12/23 02:17:36;;;;;;;0.50;0.30;;;14.90;97.90;;;;;;4954539;28;20436;-76
2020/12/23 02:20:03;;;;;;;0.40;0.30;;;15.10;97.40;;;;;;4953657;28;20484;-76
2020/12/23 02:22:29;;;;;;;0.50;0.30;;;15.30;99.90;;;;;;4954214;28;20490;-75
2020/12/23 02:24:55;;;;;;;0.40;0.30;;;15.30;97.30;;;;;;4954345;28;20530;-76
2020/12/23 02:27:22;;;;;;;0.50;0.30;;;15.40;99.90;;;;;;4953951;28;20843;-75
2020/12/23 02:29:54;;;;;;;0.50;0.40;;;15.30;99.30;;;;;;4954072;28;20778;-76
2020/12/23 02:32:20;;;;;;;0.77;0.40;;;15.70;97.90;;;;;;4970708;28;20427;-76
2020/12/23 02:34:47;;;;;;;0.82;0.40;;;14.80;98.10;;;;;;4973223;28;20483;-76
2020/12/23 02:37:13;;;;;;;1.60;0.50;;;14.70;98.80;;;;;;4972506;28;20451;-76
2020/12/23 02:39:41;;;;;;;0.40;0.30;;;14.70;98.40;;;;;;4973569;28;20491;-76
2020/12/23 02:42:08;;;;;;;1.00;0.40;;;15.10;97.70;;;;;;4972829;28;20407;-76
2020/12/23 02:44:34;;;;;;;0.40;0.40;;;15.10;98.20;;;;;;4973165;28;20389;-76
2020/12/23 02:47:01;;;;;;;0.90;0.40;;;14.70;99.90;;;;;;4972525;28;20377;-76
2020/12/23 02:49:27;;;;;;;0.50;0.35;;;14.50;99.20;;;;;;4973095;28;20397;-76
2020/12/23 02:51:54;;;;;;;0.50;0.40;;;14.70;98.80;;;;;;4972979;28;20503;-76
2020/12/23 02:54:20;;;;;;;0.40;0.30;;;14.90;99.90;;;;;;4972398;28;20430;-76
2020/12/23 02:56:46;;;;;;;0.50;0.30;;;14.80;99.90;;;;;;4973078;28;20437;-76
2020/12/23 02:59:12;;;;;;;0.60;0.50;;;14.80;98.20;;;;;;4972023;28;20388;-76
2020/12/23 03:01:38;;;;;;;0.40;0.30;;;15.10;97.90;;;;;;4972680;28;20429;-76
2020/12/23 03:04:05;;;;;;;0.77;0.50;;;15.00;97.60;;;;;;4970983;28;20416;-76
2020/12/23 03:06:31;;;;;;;0.50;0.40;;;15.20;98.10;;;;;;4972258;28;20714;-75
2020/12/23 03:08:58;;;;;;;0.50;0.40;;;14.90;99.90;;;;;;4972999;28;20931;-76
2020/12/23 03:11:24;;;;;;;0.70;0.50;;;15.10;99.90;;;;;;4971813;28;20514;-75
2020/12/23 03:13:49;;;;;;;0.60;0.40;;;14.80;98.10;;;;;;4972575;28;20435;-76
2020/12/23 03:16:15;;;;;;;0.60;0.32;;;14.70;98.30;;;;;;4972099;28;20393;-75
2020/12/23 03:18:41;;;;;;;0.60;0.30;;;14.80;99.90;;;;;;4972608;28;20399;-77
2020/12/23 03:21:07;;;;;;;0.80;0.50;;;14.70;98.60;;;;;;4971808;28;20501;-77
2020/12/23 03:23:33;;;;;;;0.50;0.43;;;14.60;98.20;;;;;;4972432;28;20901;-76
2020/12/23 03:25:59;;;;;;;0.60;0.40;;;14.50;98.40;;;;;;4972484;28;20540;-76
2020/12/23 03:28:25;;;;;;;1.67;0.40;;;14.90;99.90;;;;;;4970869;28;20388;-76
2020/12/23 03:30:50;;;;;;;0.50;0.40;;;14.50;98.60;;;;;;4966906;28;20446;-76
2020/12/23 03:33:16;;;;;;;1.87;0.50;;;14.80;98.40;;;;;;4952574;28;20414;-76
2020/12/23 03:35:41;;;;;;;0.50;0.40;;;14.50;99.90;;;;;;4953146;28;20429;-75
2020/12/23 03:38:07;;;;;;;0.80;0.40;;;14.50;98.30;;;;;;4952496;28;20401;-76
2020/12/23 03:40:33;;;;;;;0.70;0.40;;;14.30;99.60;;;;;;4952936;28;20421;-75
2020/12/23 03:42:58;;;;;;;0.50;0.38;;;14.40;99.20;;;;;;4953087;28;20426;-76
2020/12/23 03:45:24;;;;;;;0.50;0.33;;;14.10;99.90;;;;;;4952394;28;20400;-75
2020/12/23 03:47:49;;;;;;;0.50;0.40;;;14.50;99.90;;;;;;4952107;28;20424;-76
2020/12/23 03:50:15;;;;;;;0.90;0.40;;;14.00;99.90;;;;;;4952387;28;20392;-76
2020/12/23 03:52:41;;;;;;;1.08;0.60;;;13.90;99.90;;;;;;4953170;28;20452;-76
2020/12/23 03:55:08;;;;;;;0.60;0.40;;;13.80;99.90;;;;;;4952434;28;20958;-76
2020/12/23 03:57:34;;;;;;;0.80;0.40;;;13.60;99.90;;;;;;4953017;28;20421;-76
2020/12/23 03:59:59;;;;;;;1.30;0.30;;;13.90;99.90;;;;;;4952795;28;20424;-76
2020/12/23 04:02:25;;;;;;;0.60;0.40;;;13.50;99.90;;;;;;4952497;28;20406;-75
2020/12/23 04:04:50;;;;;;;1.40;0.90;;;13.40;99.90;;;;;;4952896;28;20444;-76
2020/12/23 04:07:16;;;;;;;0.50;0.47;;;13.60;99.90;;;;;;4952403;28;20382;-76
2020/12/23 04:09:42;;;;;;;1.40;0.82;;;12.80;99.90;;;;;;4952559;28;20902;-77
2020/12/23 04:12:09;;;;;;;0.50;0.30;;;13.00;99.90;;;;;;4952386;28;20429;-77
2020/12/23 04:14:34;;;;;;;0.73;0.50;;;13.30;99.90;;;;;;4952898;28;20401;-76
2020/12/23 04:17:00;;;;;;;1.50;0.50;;;13.40;99.90;;;;;;4952898;28;20390;-76
2020/12/23 04:19:25;;;;;;;0.70;0.40;;;12.80;99.90;;;;;;4955811;28;20421;-76
2020/12/23 04:21:51;;;;;;;1.10;0.53;;;13.00;99.90;;;;;;4956484;28;20469;-76
2020/12/23 04:24:17;;;;;;;0.50;0.40;;;13.20;99.90;;;;;;4955959;29;20425;-76
2020/12/23 04:26:42;;;;;;;1.85;1.20;;;13.00;99.90;;;;;;4956396;28;20863;-75
2020/12/23 04:29:08;;;;;;;0.60;0.40;;;13.00;99.90;;;;;;4955720;28;20401;-75
2020/12/23 04:31:33;;;;;;;1.70;0.80;;;13.10;99.90;;;;;;4968118;28;20415;-75
2020/12/23 04:33:59;;;;;;;0.60;0.50;;;13.30;99.90;;;;;;4975567;28;20396;-75
2020/12/23 04:36:25;;;;;;;1.37;0.50;;;13.20;99.90;;;;;;4974849;28;20388;-76
2020/12/23 04:38:50;;;;;;;0.90;0.60;;;12.90;99.90;;;;;;4975566;28;20495;-75
2020/12/23 04:41:16;;;;;;;0.40;0.30;;;13.00;99.90;;;;;;4974665;28;20443;-76
2020/12/23 04:43:42;;;;;;;0.60;0.50;;;13.70;99.90;;;;;;4975433;28;20392;-76
2020/12/23 04:46:09;;;;;;;1.40;0.40;;;13.00;99.90;;;;;;4974918;28;20396;-76
2020/12/23 04:48:38;;;;;;;1.27;0.80;;;13.30;99.90;;;;;;4975371;28;20426;-75
2020/12/23 04:51:04;;;;;;;0.63;0.50;;;12.90;99.90;;;;;;4975240;28;20854;-75
2020/12/23 04:53:31;;;;;;;1.10;0.70;;;13.10;99.90;;;;;;4974553;28;20409;-76
2020/12/23 04:55:56;;;;;;;1.23;0.75;;;13.40;99.90;;;;;;4975024;28;20427;-76
2020/12/23 04:58:23;;;;;;;0.95;0.60;;;13.60;99.90;;;;;;4954902;28;20469;-76
2020/12/23 05:00:49;;;;;;;1.60;0.63;;;13.60;99.90;;;;;;4964687;28;20400;-77
2020/12/23 05:03:15;;;;;;;0.70;0.50;;;12.70;99.90;;;;;;4962919;28;20417;-76
2020/12/23 05:05:41;;;;;;;0.87;0.47;;;12.60;99.90;;;;;;4971194;28;20390;-76
2020/12/23 05:08:07;;;;;;;0.50;0.50;;;12.80;99.90;;;;;;4955079;28;20389;-76
2020/12/23 05:10:32;;;;;;;1.20;0.40;;;13.00;99.90;;;;;;4955610;28;20398;-75
2020/12/23 05:12:58;;;;;;;0.40;0.40;;;13.30;99.90;;;;;;4955456;29;20417;-75
2020/12/23 05:15:24;;;;;;;0.70;0.55;;;13.00;99.90;;;;;;4955061;28;20400;-75
2020/12/23 05:17:51;;;;;;;0.85;0.60;;;13.00;99.90;;;;;;4955609;28;20477;-75
2020/12/23 05:20:17;;;;;;;0.70;0.50;;;13.80;99.90;;;;;;4973225;28;20470;-75
2020/12/23 05:22:49;;;;;;;0.60;0.50;;;13.40;99.90;;;;;;4974683;28;20482;-76
2020/12/23 05:25:17;;;;;;;0.90;0.50;;;13.10;99.90;;;;;;4974224;28;20482;-76
2020/12/23 05:27:43;;;;;;;0.60;0.50;;;12.70;99.90;;;;;;4974310;28;20467;-76
2020/12/23 05:30:11;;;;;;;0.90;0.50;;;13.20;99.90;;;;;;4973567;28;20860;-77
2020/12/23 05:32:40;;;;;;;1.08;0.50;;;13.10;99.90;;;;;;4974436;28;20746;-76
2020/12/23 05:35:06;;;;;;;0.70;0.50;;;12.80;99.90;;;;;;4974100;28;20395;-76
2020/12/23 05:37:32;;;;;;;0.55;0.38;;;13.10;99.90;;;;;;4954564;29;20433;-76
2020/12/23 05:39:58;;;;;;;0.50;0.40;;;13.80;99.90;;;;;;4954990;28;20382;-75
2020/12/23 05:42:26;;;;;;;0.60;0.40;;;14.50;99.90;;;;;;4954691;28;20420;-76
2020/12/23 05:44:53;;;;;;;0.50;0.40;;;14.20;99.90;;;;;;4955179;28;20416;-76
2020/12/23 05:47:23;;;;;;;0.60;0.47;;;14.60;99.90;;;;;;4954475;28;20433;-76
2020/12/23 05:49:50;;;;;;;1.60;0.50;;;14.70;99.00;;;;;;4955089;29;20446;-75
2020/12/23 05:52:21;;;;;;;0.70;0.50;;;15.20;98.20;;;;;;4954468;29;20425;-76
2020/12/23 05:54:52;;;;;;;0.80;0.40;;;14.50;97.40;;;;;;4955062;28;20447;-75
2020/12/23 05:57:21;;;;;;;0.55;0.30;;;14.90;97.10;;;;;;4954420;29;20480;-78
2020/12/23 05:59:46;;;;;;;0.70;0.50;;;15.10;96.90;;;;;;4954974;28;20413;-76
2020/12/23 06:02:13;;;;;;;0.50;0.32;;;14.90;99.60;;;;;;4954247;29;20394;-77
2020/12/23 06:04:43;;;;;;;0.50;0.30;;;15.00;99.90;;;;;;4954986;28;20565;-76
2020/12/23 06:07:09;;;;;;;0.50;0.40;;;15.20;98.70;;;;;;4954813;28;20443;-76
2020/12/23 06:09:48;;;;;;;0.90;0.40;;;15.10;96.00;;;;;;4954665;28;20394;-77
2020/12/23 06:12:20;;;;;;;0.40;0.32;;;15.00;99.90;;;;;;4953576;28;20429;-77
2020/12/23 06:14:55;;;;;;;0.77;0.60;;;15.10;97.40;;;;;;4954634;29;20401;-75
2020/12/23 06:17:25;;;;;;;0.70;0.40;;;15.10;96.20;;;;;;4953856;29;20398;-76
2020/12/23 06:19:57;;;;;;;0.80;0.40;;;15.10;95.20;;;;;;4954528;28;20873;-77
2020/12/23 06:22:25;;;;;;;1.30;0.52;;;15.50;95.60;;;;;;4953832;28;20386;-77
2020/12/23 06:24:51;;;;;;;0.50;0.40;;;15.50;99.90;;;;;;4954099;28;20860;-77
2020/12/23 06:27:17;;;;;;;1.10;0.50;;;15.30;95.70;;;;;;4954075;29;20480;-75
2020/12/23 06:29:45;;;;;;;1.33;0.50;;;15.60;98.40;;;;;;4954086;28;20759;-77
2020/12/23 06:32:20;;;;;;;2.70;0.60;;;14.90;99.90;;;;;;4954136;29;20480;-77
2020/12/23 06:34:57;;;;;;;0.60;0.47;;;14.80;99.90;;;;;;4954292;29;20492;-75
2020/12/23 06:37:26;;;;;;;1.33;0.82;;;15.20;95.70;;;;;;4953105;29;20814;-76
2020/12/23 06:39:53;;;;;;;0.50;0.40;;;14.90;96.60;;;;;;4969236;28;20732;-76
2020/12/23 06:42:18;;;;;;;0.80;0.40;;;14.90;96.10;;;;;;4952722;28;20452;-76
2020/12/23 06:44:44;;;;;;;0.70;0.60;;;15.30;99.90;;;;;;4953704;29;20870;-77
2020/12/23 06:47:20;;;;;;;0.73;0.50;;;14.90;96.00;;;;;;4953972;29;20725;-76
2020/12/23 06:49:53;;;;;;;0.80;0.70;;;14.90;96.00;;;;;;4960476;28;20388;-75
2020/12/23 06:52:21;;;;;;;0.70;0.40;;;14.80;96.10;;;;;;4955249;28;20469;-76
2020/12/23 06:55:04;;;;;;;0.43;0.40;;;14.90;96.10;;;;;;4953486;29;20480;-76
2020/12/23 06:57:39;;;;;;;1.40;0.63;;;14.90;95.40;;;;;;4953065;28;20402;-77
2020/12/23 07:00:08;;;;;;;0.60;0.50;;;14.90;95.40;;;;;;4953770;28;20398;-77
2020/12/23 07:02:38;;;;;;;0.98;0.50;;;14.80;97.30;;;;;;4952760;29;20485;-76
2020/12/23 07:05:04;;;;;;;0.70;0.40;;;15.10;94.90;;;;;;4953641;28;20396;-76
2020/12/23 07:07:38;;;;;;;1.00;0.70;;;15.10;99.90;;;;;;4953239;29;20413;-76
2020/12/23 07:10:20;;;;;;;0.63;0.45;;;15.10;98.60;;;;;;4960299;28;20443;-75
2020/12/23 07:12:55;;;;;;;0.90;0.50;;;15.10;97.20;;;;;;4972717;28;20822;-76
2020/12/23 07:15:34;;;;;;;0.70;0.50;;;15.10;94.70;;;;;;4972218;28;20388;-75
2020/12/23 07:18:29;;;;;;;0.40;0.30;;;15.30;96.20;;;;;;4972392;28;20744;-75
2020/12/23 07:20:58;;;;;;;0.70;0.50;;;15.30;94.10;;;;;;4974160;28;20491;-76
2020/12/23 07:23:26;;;;;;;0.65;0.50;;;15.40;94.50;;;;;;4987080;28;20774;-76
2020/12/23 07:25:53;;;;;;;0.87;0.50;;;15.10;98.00;;;;;;4972736;28;20396;-76
2020/12/23 07:28:31;;;;;;;0.80;0.50;;;15.20;94.60;;;;;;4971602;28;20388;-76
2020/12/23 07:30:58;;;;;;;0.60;0.50;;;15.30;98.90;;;;;;4954173;28;20401;-77
2020/12/23 07:33:25;;;;;;;0.80;0.50;;;15.20;94.40;;;;;;4951620;28;20414;-77
2020/12/23 07:35:54;;;;;;;0.70;0.50;;;15.30;94.30;;;;;;4952889;28;20400;-76
2020/12/23 07:38:24;;;;;;;1.67;0.60;;;15.20;95.50;;;;;;4951686;29;20414;-77
2020/12/23 07:40:53;;;;;;;1.00;0.73;;;15.40;94.30;;;;;;4952735;28;20526;-76
2020/12/23 07:43:20;;;;;;;1.80;1.10;;;15.30;94.20;;;;;;4951943;29;20784;-77
2020/12/23 07:45:46;;;;;;;1.10;1.00;;;15.10;97.40;;;;;;4952788;28;20941;-77
2020/12/23 07:48:13;;;;;;;0.60;0.40;;;15.60;98.60;;;;;;4952807;28;20929;-77
2020/12/23 07:50:53;;;;;;;0.60;0.47;;;15.30;94.40;;;;;;4952546;29;20890;-78
2020/12/23 07:53:20;;;;;;;0.70;0.50;;;15.30;94.70;;;;;;4953696;28;20951;-76
2020/12/23 07:55:48;;;;;;;0.85;0.50;;;15.40;93.90;;;;;;4957036;29;20886;-77
2020/12/23 07:58:14;;;;;;;0.60;0.50;;;15.50;93.60;;;;;;4957073;28;20475;-77
2020/12/23 08:00:41;;;;;;;0.87;0.50;;;15.50;93.70;;;;;;4956488;28;20400;-77
2020/12/23 08:03:07;;;;;;;0.93;0.50;;;15.70;93.40;;;;;;4957046;28;20393;-76
2020/12/23 08:05:37;;;;;;;0.50;0.40;;;15.60;93.10;;;;;;4956368;29;20396;-77
2020/12/23 08:08:03;;;;;;;1.00;0.60;;;15.70;92.80;;;;;;4957037;28;20392;-77
2020/12/23 08:10:29;;;;;;;0.50;0.33;;;15.70;93.10;;;;;;4966462;28;20392;-76
2020/12/23 08:12:57;;;;;;;0.70;0.40;;;16.10;97.40;;;;;;4976176;28;20951;-76
2020/12/23 08:15:23;;;;;;;0.60;0.43;;;16.00;97.20;;;;;;4975367;28;20872;-77
2020/12/23 08:18:04;;;;;;;0.85;0.40;;;15.90;94.50;;;;;;4975790;28;20422;-78
2020/12/23 08:20:31;;;;;;;0.68;0.40;;;15.40;94.50;;;;;;4975526;28;20423;-76
2020/12/23 08:22:58;;;;;;;1.70;0.60;;;15.60;97.40;;;;;;4975943;28;20407;-76
2020/12/23 08:25:25;;;;;;;0.80;0.50;;;15.50;97.40;;;;;;4967761;28;20481;-78
2020/12/23 08:27:52;;;;;;;1.20;0.40;;;15.70;97.80;;;;;;4957202;28;20446;-76
2020/12/23 08:30:30;;;;;;;0.55;0.40;;;15.70;97.90;;;;;;4955448;28;20398;-77
2020/12/23 08:33:14;;;;;;;0.80;0.80;;;15.60;93.40;;;;;;4958996;28;20428;-78
2020/12/23 08:35:44;;;;;;;1.70;0.70;;;15.40;93.70;;;;;;4959950;28;20494;-77
2020/12/23 08:38:16;;;;;;;1.00;0.90;;;15.40;93.90;;;;;;4958119;28;20487;-78
2020/12/23 08:40:50;;;;;;;0.80;0.60;;;15.30;94.30;;;;;;4952604;28;20851;-76
2020/12/23 08:43:21;;;;;;;0.90;0.50;;;15.30;94.10;;;;;;4955620;28;20411;-78
2020/12/23 08:45:47;;;;;;;1.30;0.50;;;15.30;98.30;;;;;;4956600;28;20760;-78
2020/12/23 08:48:18;;;;;;;1.67;0.60;;;15.40;98.70;;;;;;4958002;28;20384;-77
2020/12/23 08:51:04;;;;;;;0.50;0.40;;;15.20;94.50;;;;;;4954919;28;20394;-77
2020/12/23 08:53:38;;;;;;;0.80;0.50;;;15.20;94.30;;;;;;4955972;28;20430;-78
2020/12/23 08:56:26;;;;;;;0.52;0.40;;;15.20;95.40;;;;;;4955308;28;20414;-78
2020/12/23 08:58:58;;;;;;;0.82;0.50;;;15.40;94.80;;;;;;4957399;28;20552;-79
2020/12/23 09:01:26;;;;;;;2.30;0.70;;;15.20;94.70;;;;;;4956028;28;20877;-78
2020/12/23 09:04:09;;;;;;;0.80;0.60;;;15.10;96.60;;;;;;4956829;28;20766;-76
2020/12/23 09:06:36;;;;;;;0.65;0.60;;;15.20;94.60;;;;;;4954703;28;20402;-77
2020/12/23 09:09:17;;;;;;;0.75;0.50;;;15.20;94.60;;;;;;4960252;28;20409;-78
2020/12/23 09:11:47;;;;;;;0.80;0.50;;;15.30;94.20;;;;;;4954097;28;20423;-78
2020/12/23 09:14:22;;;;;;;0.70;0.50;;;15.30;94.20;;;;;;4955588;28;20411;-76
2020/12/23 09:17:06;;;;;;;0.95;0.70;;;15.40;94.20;;;;;;4954163;28;20399;-76
2020/12/23 09:19:48;;;;;;;0.70;0.57;;;15.40;94.00;;;;;;4953514;28;20410;-78
2020/12/23 09:22:30;;;;;;;1.10;0.50;;;15.40;94.50;;;;;;4953787;28;20408;-77
2020/12/23 09:25:16;;;;;;;0.70;0.50;;;15.50;93.90;;;;;;4955167;28;20858;-76
2020/12/23 09:27:43;;;;;;;0.70;0.50;;;15.40;93.70;;;;;;4955057;28;20814;-78
2020/12/23 09:30:09;;;;;;;0.70;0.50;;;15.60;93.90;;;;;;4956723;28;20388;-78
2020/12/23 09:32:49;;;;;;;0.60;0.50;;;15.50;94.10;;;;;;4952434;28;20618;-77
2020/12/23 09:35:23;;;;;;;1.20;0.80;;;15.50;94.00;;;;;;4954960;28;20614;-79
2020/12/23 09:38:10;;;;;;;1.35;0.80;;;15.50;93.90;;;;;;4957761;28;20551;-79
2020/12/23 09:40:42;;;;;;;1.70;0.50;;;15.30;94.10;;;;;;4955359;28;20460;-77
2020/12/23 09:43:10;;;;;;;2.28;0.50;;;15.60;93.90;;;;;;4956394;28;20400;-76
2020/12/23 09:45:36;;;;;;;0.80;0.60;;;15.40;93.90;;;;;;4952830;28;20503;-79
2020/12/23 09:48:02;;;;;;;1.00;0.60;;;15.40;97.30;;;;;;4959762;28;20835;-78
2020/12/23 09:50:28;;;;;;;1.05;0.40;;;15.60;94.00;;;;;;4955159;28;21038;-76
2020/12/23 09:52:53;;;;;;;0.90;0.60;;;15.90;95.00;;;;;;4953129;28;20423;-78
2020/12/23 09:55:19;;;;;;;0.80;0.60;;;15.50;94.80;;;;;;4952824;28;20402;-79
2020/12/23 09:57:44;;;;;;;0.70;0.50;;;15.60;93.80;;;;;;4954462;28;20398;-77
2020/12/23 10:00:10;;;;;;;0.93;0.60;;;15.20;98.10;;;;;;4952696;28;20754;-79
2020/12/23 10:02:36;;;;;;;0.70;0.50;;;15.50;94.60;;;;;;4956515;28;20414;-79
2020/12/23 10:05:02;;;;;;;1.03;0.50;;;15.60;94.00;;;;;;4972382;28;20388;-78
2020/12/23 10:07:28;;;;;;;0.50;0.50;;;15.30;97.70;;;;;;4953747;28;20396;-76
2020/12/23 10:09:54;;;;;;;0.70;0.53;;;15.70;93.40;;;;;;4955184;28;20408;-77
2020/12/23 10:12:22;;;;;;;1.80;0.60;;;15.70;93.00;;;;;;4955385;28;20452;-78
2020/12/23 10:14:49;;;;;;;0.70;0.50;;;16.20;94.70;;;;;;4953238;28;21035;-78
2020/12/23 10:17:14;;;;;;;1.10;0.50;;;15.20;98.20;;;;;;4953219;28;21237;-81
2020/12/23 10:19:40;;;;;;;0.73;0.40;;;15.60;94.30;;;;;;4956742;28;20439;-78
2020/12/23 10:22:06;;;;;;;0.70;0.50;;;15.70;97.10;;;;;;4955487;28;20390;-77
2020/12/23 10:24:32;;;;;;;0.80;0.40;;;15.70;94.00;;;;;;4952437;28;20400;-79
2020/12/23 10:26:57;;;;;;;1.10;0.60;;;15.80;94.20;;;;;;4953077;28;20392;-79
2020/12/23 10:29:23;;;;;;;0.80;0.40;;;16.20;99.10;;;;;;4956161;28;20390;-76
2020/12/23 10:31:48;;;;;;;1.00;0.50;;;15.70;94.20;;;;;;4952922;28;20470;-77
2020/12/23 10:34:15;;;;;;;0.70;0.50;;;16.00;94.80;;;;;;4955919;28;20765;-77
2020/12/23 10:36:41;;;;;;;0.90;0.57;;;15.70;98.00;;;;;;4955340;28;20399;-76
2020/12/23 10:39:07;;;;;;;1.10;0.50;;;16.20;94.00;;;;;;4953438;28;20418;-77
2020/12/23 10:41:33;;;;;;;0.60;0.40;;;16.00;93.60;;;;;;4955075;28;20414;-80
2020/12/23 10:43:58;;;;;;;0.60;0.50;;;16.10;96.80;;;;;;4954057;28;20483;-80
2020/12/23 10:46:24;;;;;;;0.73;0.50;;;16.50;93.20;;;;;;4951259;28;21214;-80
2020/12/23 10:48:50;;;;;;;0.60;0.40;;;16.20;93.20;;;;;;4954848;28;20380;-81
2020/12/23 10:51:16;;;;;;;1.20;0.43;;;16.10;97.50;;;;;;4953180;28;20410;-81
2020/12/23 10:53:42;;;;;;;1.90;1.20;;;;;;;;;;4953174;28;20440;-80
2020/12/23 10:56:08;;;;;;;2.00;0.60;;;16.40;92.10;;;;;;4954127;28;20815;-79
2020/12/23 10:58:34;;;;;;;0.60;0.50;;;15.80;92.00;;;;;;4954843;28;20391;-84
2020/12/23 11:01:04;;;;;;;0.60;0.50;;;15.90;92.60;;;;;;4953091;28;20402;-80
2020/12/23 11:03:30;;;;;;;0.50;0.45;;;16.20;93.10;;;;;;4955238;28;20402;-82
2020/12/23 11:05:56;;;;;;;0.80;0.43;;;16.00;93.60;;;;;;4957747;28;20407;-78
2020/12/23 11:08:22;;;;;;;2.40;0.90;;;16.10;93.30;;;;;;4956107;28;20394;-80
2020/12/23 11:10:47;;;;;;;0.63;0.50;;;15.70;97.20;;;;;;4950887;28;20535;-81
2020/12/23 11:13:13;;;;;;;0.40;0.40;;;16.00;93.30;;;;;;4954960;28;20481;-79
2020/12/23 11:15:38;;;;;;;1.25;0.70;;;16.00;93.40;;;;;;4951938;28;21053;-78
2020/12/23 11:18:07;;;;;;;0.90;0.70;;;16.20;95.30;;;;;;4951563;28;20388;-81
2020/12/23 11:20:32;;;;;;;0.80;0.50;;;16.10;93.40;;;;;;4955229;28;20954;-81
2020/12/23 11:22:58;;;;;;;0.80;0.77;;;16.20;98.20;;;;;;4954620;28;20381;-79
2020/12/23 11:25:24;;;;;;;0.98;0.60;;;16.10;93.60;;;;;;4953689;28;20384;-80
2020/12/23 11:27:49;;;;;;;0.70;0.47;;;16.70;93.90;;;;;;4954512;28;20425;-81
2020/12/23 11:30:15;;;;;;;0.70;0.60;;;16.70;92.80;;;;;;4954268;28;20808;-80
2020/12/23 11:32:40;;;;;;;0.93;0.80;;;16.90;92.90;;;;;;4952372;28;20841;-79
2020/12/23 11:35:06;;;;;;;0.70;0.60;;;17.60;95.90;;;;;;4954750;28;20951;-81
2020/12/23 11:37:32;;;;;;;0.90;0.70;;;17.10;91.50;;;;;;4951955;28;20418;-80
2020/12/23 11:39:58;;;;;;;1.00;0.80;;;17.00;95.90;;;;;;4950517;29;20390;-80
2020/12/23 11:42:24;;;;;;;2.15;0.60;;;16.80;96.70;;;;;;4951577;28;20465;-80
2020/12/23 11:44:50;;;;;;;0.60;0.50;;;16.70;91.70;;;;;;4951130;28;20457;-79
2020/12/23 11:47:17;;;;;;;0.80;0.50;;;16.60;92.30;;;;;;4951979;28;20429;-79
2020/12/23 11:49:43;;;;;;;0.90;0.70;;;16.90;97.60;;;;;;4950998;28;20966;-79
2020/12/23 11:52:09;;;;;;;1.73;0.70;;;16.60;97.40;;;;;;4952117;29;20505;-79
2020/12/23 11:54:35;;;;;;;0.80;0.60;;;15.80;93.80;;;;;;4951520;28;20406;-79
2020/12/23 11:57:01;;;;;;;1.67;0.88;;;15.90;93.90;;;;;;4951763;29;20389;-78
2020/12/23 11:59:26;;;;;;;1.23;1.00;;;15.90;99.00;;;;;;4951999;29;20378;-78
2020/12/23 12:01:55;;;;;;;1.67;0.90;;;15.70;94.70;;;;;;4953994;28;20401;-78
2020/12/23 12:04:21;;;;;;;1.10;0.70;;;15.60;94.50;;;;;;4954799;28;20478;-77
2020/12/23 12:06:48;;;;;;;2.08;1.00;;;15.70;99.00;;;;;;4953058;28;20429;-77
2020/12/23 12:09:14;;;;;;;0.80;0.75;;;15.70;94.70;;;;;;4959414;28;20793;-81
2020/12/23 12:11:39;;;;;;;1.10;0.87;;;15.90;94.50;;;;;;4957629;28;20416;-76
2020/12/23 12:14:05;;;;;;;1.27;0.70;;;15.80;94.50;;;;;;4961497;28;20402;-76
2020/12/23 12:16:31;;;;;;;1.50;0.80;;;15.40;98.60;;;;;;4963788;28;20392;-80
2020/12/23 12:18:57;;;;;;;1.17;0.90;;;15.80;94.70;;;;;;4956053;28;20479;-77
2020/12/23 12:21:27;;;;;;;1.75;1.00;;;15.70;94.70;;;;;;4967841;28;20487;-75
2020/12/23 12:23:52;;;;;;;1.00;0.80;;;15.50;99.00;;;;;;4956343;28;20475;-76
2020/12/23 12:26:18;;;;;;;1.10;0.80;;;15.80;97.30;;;;;;4962750;28;20843;-76
2020/12/23 12:28:44;;;;;;;1.40;1.00;;;15.90;94.40;;;;;;4963192;28;20865;-79
2020/12/23 12:31:09;;;;;;;1.20;1.00;;;15.90;95.70;;;;;;4955923;28;20409;-75
2020/12/23 12:33:35;;;;;;;0.90;0.70;;;15.90;94.20;;;;;;4970299;28;20812;-76
2020/12/23 12:36:01;;;;;;;1.60;1.20;;;16.00;93.90;;;;;;4964503;28;20401;-77
2020/12/23 12:38:26;;;;;;;0.90;0.80;;;16.10;98.30;;;;;;4953855;28;20913;-76
2020/12/23 12:40:52;;;;;;;0.98;0.88;;;15.80;94.40;;;;;;4967962;28;20408;-75
2020/12/23 12:43:18;;;;;;;1.60;1.00;;;16.10;94.10;;;;;;4958949;28;20428;-75
2020/12/23 12:45:43;;;;;;;1.30;0.90;;;15.80;94.40;;;;;;4967948;28;20384;-75
2020/12/23 12:48:09;;;;;;;1.10;0.90;;;15.60;94.40;;;;;;4955824;29;20386;-75
2020/12/23 12:50:35;;;;;;;0.80;0.70;;;16.00;99.10;;;;;;4953059;28;20459;-76